createdAt,value
2018-04-23T00:00:15.571Z,0
2018-04-23T00:01:15.303Z,0
2018-04-23T00:02:15.045Z,0
2018-04-23T00:03:15.298Z,0
2018-04-23T00:04:15.554Z,0
2018-04-23T00:05:15.039Z,0
2018-04-23T00:06:15.546Z,0
2018-04-23T00:07:15.042Z,0
2018-04-23T00:08:15.590Z,0
2018-04-23T00:09:15.287Z,0
2018-04-23T00:10:15.775Z,0
2018-04-23T00:11:15.746Z,0
2018-04-23T00:12:15.273Z,0
2018-04-23T00:13:15.268Z,0
2018-04-23T00:14:15.530Z,0
2018-04-23T00:15:15.527Z,0
2018-04-23T00:16:15.251Z,0
2018-04-23T00:17:15.265Z,0
2018-04-23T00:18:15.243Z,0
2018-04-23T00:19:14.989Z,0
2018-04-23T00:20:15.257Z,0
2018-04-23T00:21:15.235Z,0
2018-04-23T00:22:15.237Z,0
2018-04-23T00:23:15.327Z,0
2018-04-23T00:24:15.483Z,0
2018-04-23T00:25:14.975Z,0
2018-04-23T00:26:15.215Z,0
2018-04-23T00:27:15.217Z,0
2018-04-23T00:28:14.692Z,0
2018-04-23T00:29:15.166Z,0
2018-04-23T00:30:15.173Z,0
2018-04-23T00:31:14.942Z,0
2018-04-23T00:32:15.194Z,0
2018-04-23T00:33:15.154Z,0
2018-04-23T00:34:15.205Z,0
2018-04-23T00:35:15.179Z,0
2018-04-23T00:36:14.923Z,0
2018-04-23T00:37:15.176Z,0
2018-04-23T00:38:15.172Z,0
2018-04-23T00:39:15.170Z,0
2018-04-23T00:40:15.420Z,0
2018-04-23T00:41:15.153Z,0
2018-04-23T00:42:14.893Z,0
2018-04-23T00:43:14.890Z,0
2018-04-23T00:44:15.157Z,0
2018-04-23T00:45:15.417Z,0
2018-04-23T00:46:15.136Z,0
2018-04-23T00:47:15.131Z,0
2018-04-23T00:48:15.142Z,0
2018-04-23T00:49:15.128Z,0
2018-04-23T00:50:14.861Z,0
2018-04-23T00:51:14.877Z,0
2018-04-23T00:52:15.369Z,0
2018-04-23T00:53:14.856Z,0
2018-04-23T00:54:15.139Z,0
2018-04-23T00:55:14.836Z,0
2018-04-23T00:56:15.096Z,0
2018-04-23T00:57:15.361Z,0
2018-04-23T00:58:15.084Z,0
2018-04-23T00:59:15.342Z,0
2018-04-23T01:00:15.078Z,0
2018-04-23T01:01:14.823Z,0
2018-04-23T01:02:14.553Z,0
2018-04-23T01:03:15.069Z,0
2018-04-23T01:04:15.324Z,0
2018-04-23T01:05:15.055Z,0
2018-04-23T01:06:15.049Z,0
2018-04-23T01:07:15.060Z,0
2018-04-23T01:08:15.047Z,0
2018-04-23T01:09:15.305Z,0
2018-04-23T01:10:15.038Z,0
2018-04-23T01:11:14.511Z,0
2018-04-23T01:12:15.045Z,0
2018-04-23T01:13:15.300Z,0
2018-04-23T01:14:15.016Z,0
2018-04-23T01:15:15.267Z,0
2018-04-23T01:16:15.003Z,0
2018-04-23T01:17:15.005Z,0
2018-04-23T01:18:15.016Z,0
2018-04-23T01:19:15.250Z,0
2018-04-23T01:20:14.984Z,0
2018-04-23T01:21:14.737Z,0
2018-04-23T01:22:14.727Z,0
2018-04-23T01:23:14.974Z,0
2018-04-23T01:24:15.235Z,0
2018-04-23T01:25:14.719Z,0
2018-04-23T01:26:14.963Z,0
2018-04-23T01:27:14.977Z,0
2018-04-23T01:28:14.959Z,0
2018-04-23T01:29:14.949Z,0
2018-04-23T01:30:14.711Z,0
2018-04-23T01:31:15.196Z,0
2018-04-23T01:32:14.420Z,0
2018-04-23T01:33:15.192Z,0
2018-04-23T01:34:14.682Z,0
2018-04-23T01:35:14.402Z,0
2018-04-23T01:36:15.176Z,0
2018-04-23T01:37:15.222Z,0
2018-04-23T01:38:14.920Z,0
2018-04-23T01:39:15.161Z,0
2018-04-23T01:40:15.159Z,0
2018-04-23T01:41:14.892Z,0
2018-04-23T01:42:14.632Z,0
2018-04-23T01:43:14.627Z,0
2018-04-23T01:44:14.931Z,0
2018-04-23T01:45:14.882Z,0
2018-04-23T01:46:15.131Z,0
2018-04-23T01:47:15.155Z,0
2018-04-23T01:48:15.121Z,0
2018-04-23T01:49:14.863Z,0
2018-04-23T01:50:15.118Z,0
2018-04-23T01:51:14.592Z,0
2018-04-23T01:52:14.863Z,0
2018-04-23T01:53:14.838Z,0
2018-04-23T01:54:14.835Z,0
2018-04-23T01:55:15.093Z,0
2018-04-23T01:56:15.080Z,0
2018-04-23T01:57:14.821Z,0
2018-04-23T01:58:14.831Z,0
2018-04-23T01:59:14.970Z,0
2018-04-23T02:00:14.800Z,0
2018-04-23T02:01:15.051Z,0
2018-04-23T02:02:14.282Z,0
2018-04-23T02:03:14.807Z,0
2018-04-23T02:04:15.048Z,0
2018-04-23T02:05:15.024Z,0
2018-04-23T02:06:14.775Z,0
2018-04-23T02:07:14.515Z,0
2018-04-23T02:08:14.763Z,0
2018-04-23T02:09:14.764Z,0
2018-04-23T02:10:14.757Z,0
2018-04-23T02:11:15.226Z,0
2018-04-23T02:12:15.023Z,0
2018-04-23T02:13:14.504Z,0
2018-04-23T02:14:14.998Z,0
2018-04-23T02:15:13.956Z,0
2018-04-23T02:16:14.525Z,0
2018-04-23T02:17:14.724Z,0
2018-04-23T02:18:14.736Z,0
2018-04-23T02:19:14.718Z,0
2018-04-23T02:20:14.982Z,0
2018-04-23T02:21:14.443Z,0
2018-04-23T02:22:14.695Z,0
2018-04-23T02:23:14.669Z,0
2018-04-23T02:24:14.942Z,0
2018-04-23T02:25:14.941Z,0
2018-04-23T02:26:14.680Z,0
2018-04-23T02:27:14.928Z,0
2018-04-23T02:28:14.971Z,0
2018-04-23T02:29:14.922Z,0
2018-04-23T02:30:14.933Z,0
2018-04-23T02:31:14.658Z,0
2018-04-23T02:32:14.391Z,0
2018-04-23T02:33:14.148Z,0
2018-04-23T02:34:14.400Z,0
2018-04-23T02:35:14.911Z,0
2018-04-23T02:36:14.389Z,0
2018-04-23T02:37:14.622Z,0
2018-04-23T02:38:14.889Z,0
2018-04-23T02:39:14.661Z,0
2018-04-23T02:40:14.615Z,0
2018-04-23T02:41:14.351Z,0
2018-04-23T02:42:14.608Z,0
2018-04-23T02:43:14.604Z,0
2018-04-23T02:44:14.606Z,0
2018-04-23T02:45:14.330Z,0
2018-04-23T02:46:14.322Z,0
2018-04-23T02:47:14.314Z,0
2018-04-23T02:48:14.576Z,0
2018-04-23T02:49:14.808Z,0
2018-04-23T02:50:14.859Z,0
2018-04-23T02:51:14.569Z,0
2018-04-23T02:52:14.557Z,0
2018-04-23T02:53:14.297Z,0
2018-04-23T02:54:14.284Z,0
2018-04-23T02:55:14.556Z,0
2018-04-23T02:56:14.801Z,0
2018-04-23T02:57:14.814Z,0
2018-04-23T02:58:14.546Z,0
2018-04-23T02:59:14.257Z,0
2018-04-23T03:00:14.513Z,0
2018-04-23T03:01:13.992Z,0
2018-04-23T03:02:14.245Z,0
2018-04-23T03:03:14.258Z,0
2018-04-23T03:04:14.755Z,0
2018-04-23T03:05:14.253Z,0
2018-04-23T03:06:14.758Z,0
2018-04-23T03:07:14.224Z,0
2018-04-23T03:08:14.470Z,0
2018-04-23T03:09:13.946Z,0
2018-04-23T03:10:14.214Z,0
2018-04-23T03:11:14.459Z,0
2018-04-23T03:12:14.194Z,0
2018-04-23T03:13:13.934Z,0
2018-04-23T03:14:14.446Z,0
2018-04-23T03:15:14.455Z,0
2018-04-23T03:16:14.434Z,0
2018-04-23T03:17:14.747Z,0
2018-04-23T03:18:14.424Z,0
2018-04-23T03:19:14.414Z,0
2018-04-23T03:20:14.694Z,0
2018-04-23T03:21:14.402Z,0
2018-04-23T03:22:14.402Z,0
2018-04-23T03:23:14.392Z,0
2018-04-23T03:24:14.405Z,0
2018-04-23T03:25:13.871Z,0
2018-04-23T03:26:14.387Z,0
2018-04-23T03:27:14.131Z,0
2018-04-23T03:28:14.377Z,0
2018-04-23T03:29:14.109Z,0
2018-04-23T03:30:14.633Z,0
2018-04-23T03:31:14.629Z,0
2018-04-23T03:32:14.834Z,0
2018-04-23T03:33:14.085Z,0
2018-04-23T03:34:13.824Z,0
2018-04-23T03:35:14.081Z,0
2018-04-23T03:36:14.327Z,0
2018-04-23T03:37:14.472Z,0
2018-04-23T03:38:13.800Z,0
2018-04-23T03:39:14.059Z,0
2018-04-23T03:40:14.050Z,0
2018-04-23T03:41:14.322Z,0
2018-04-23T03:42:14.086Z,0
2018-04-23T03:43:14.550Z,0
2018-04-23T03:44:14.544Z,0
2018-04-23T03:45:13.766Z,0
2018-04-23T03:46:14.278Z,0
2018-04-23T03:47:14.273Z,0
2018-04-23T03:48:14.271Z,0
2018-04-23T03:49:14.286Z,0
2018-04-23T03:50:14.517Z,0
2018-04-23T03:51:14.509Z,0
2018-04-23T03:52:13.992Z,0
2018-04-23T03:53:14.503Z,0
2018-04-23T03:54:13.986Z,0
2018-04-23T03:55:14.499Z,0
2018-04-23T03:56:14.493Z,0
2018-04-23T03:57:14.249Z,0
2018-04-23T03:58:13.699Z,0
2018-04-23T03:59:14.213Z,0
2018-04-23T04:00:14.461Z,5
2018-04-23T04:01:14.199Z,5
2018-04-23T04:02:14.279Z,5
2018-04-23T04:03:14.192Z,5
2018-04-23T04:04:14.403Z,5
2018-04-23T04:05:14.176Z,5
2018-04-23T04:06:13.925Z,5
2018-04-23T04:07:14.423Z,5
2018-04-23T04:08:14.176Z,5
2018-04-23T04:09:13.904Z,10
2018-04-23T04:10:13.915Z,10
2018-04-23T04:11:14.407Z,10
2018-04-23T04:12:14.624Z,10
2018-04-23T04:13:13.875Z,15
2018-04-23T04:14:13.871Z,15
2018-04-23T04:15:14.123Z,15
2018-04-23T04:16:14.577Z,15
2018-04-23T04:17:13.873Z,15
2018-04-23T04:18:13.592Z,20
2018-04-23T04:19:14.114Z,20
2018-04-23T04:20:13.596Z,20
2018-04-23T04:21:14.092Z,20
2018-04-23T04:22:14.567Z,25
2018-04-23T04:23:13.762Z,25
2018-04-23T04:24:14.076Z,25
2018-04-23T04:25:13.809Z,25
2018-04-23T04:26:13.826Z,25
2018-04-23T04:27:14.361Z,30
2018-04-23T04:28:14.313Z,30
2018-04-23T04:29:14.313Z,30
2018-04-23T04:30:14.058Z,30
2018-04-23T04:31:14.318Z,30
2018-04-23T04:32:13.782Z,35
2018-04-23T04:33:13.767Z,35
2018-04-23T04:34:13.767Z,35
2018-04-23T04:35:13.779Z,35
2018-04-23T04:36:14.265Z,40
2018-04-23T04:37:14.007Z,40
2018-04-23T04:38:14.044Z,40
2018-04-23T04:39:14.000Z,40
2018-04-23T04:40:14.253Z,45
2018-04-23T04:41:14.205Z,45
2018-04-23T04:42:13.996Z,45
2018-04-23T04:43:13.458Z,50
2018-04-23T04:44:13.973Z,50
2018-04-23T04:45:13.963Z,55
2018-04-23T04:46:13.960Z,55
2018-04-23T04:47:14.156Z,60
2018-04-23T04:48:13.953Z,60
2018-04-23T04:49:13.959Z,60
2018-04-23T04:50:14.190Z,60
2018-04-23T04:51:13.415Z,60
2018-04-23T04:52:13.666Z,65
2018-04-23T04:53:14.181Z,65
2018-04-23T04:54:13.660Z,65
2018-04-23T04:55:13.910Z,70
2018-04-23T04:56:14.401Z,70
2018-04-23T04:57:13.922Z,70
2018-04-23T04:58:14.155Z,70
2018-04-23T04:59:14.310Z,75
2018-04-23T05:00:13.889Z,75
2018-04-23T05:01:14.156Z,75
2018-04-23T05:02:13.898Z,75
2018-04-23T05:03:14.147Z,80
2018-04-23T05:04:14.136Z,80
2018-04-23T05:05:13.348Z,80
2018-04-23T05:06:14.118Z,80
2018-04-23T05:07:13.351Z,85
2018-04-23T05:08:14.107Z,85
2018-04-23T05:09:13.853Z,85
2018-04-23T05:10:14.099Z,85
2018-04-23T05:11:14.108Z,90
2018-04-23T05:12:13.589Z,90
2018-04-23T05:13:13.352Z,95
2018-04-23T05:14:14.065Z,95
2018-04-23T05:15:13.995Z,100
2018-04-23T05:16:13.624Z,105
2018-04-23T05:17:14.418Z,105
2018-04-23T05:18:14.287Z,110
2018-04-23T05:19:13.645Z,115
2018-04-23T05:20:13.791Z,120
2018-04-23T05:21:13.601Z,115
2018-04-23T05:22:13.657Z,115
2018-04-23T05:23:13.659Z,115
2018-04-23T05:24:13.771Z,115
2018-04-23T05:25:13.855Z,115
2018-04-23T05:26:13.512Z,115
2018-04-23T05:27:13.250Z,115
2018-04-23T05:28:13.510Z,110
2018-04-23T05:29:14.075Z,105
2018-04-23T05:30:14.129Z,100
2018-04-23T05:31:13.484Z,100
2018-04-23T05:32:13.304Z,100
2018-04-23T05:33:14.002Z,100
2018-04-23T05:34:13.833Z,100
2018-04-23T05:35:13.985Z,95
2018-04-23T05:36:13.720Z,95
2018-04-23T05:37:14.033Z,95
2018-04-23T05:38:13.505Z,95
2018-04-23T05:39:13.756Z,100
2018-04-23T05:40:13.964Z,105
2018-04-23T05:41:13.999Z,110
2018-04-23T05:42:13.709Z,120
2018-04-23T05:43:13.924Z,130
2018-04-23T05:44:13.957Z,135
2018-04-23T05:45:13.687Z,145
2018-04-23T05:46:13.427Z,150
2018-04-23T05:47:13.953Z,160
2018-04-23T05:48:13.407Z,170
2018-04-23T05:49:13.407Z,175
2018-04-23T05:50:13.407Z,185
2018-04-23T05:51:13.921Z,190
2018-04-23T05:52:13.676Z,185
2018-04-23T05:53:13.395Z,190
2018-04-23T05:54:13.648Z,190
2018-04-23T05:55:13.715Z,190
2018-04-23T05:56:14.613Z,195
2018-04-23T05:57:13.655Z,200
2018-04-23T05:58:13.377Z,200
2018-04-23T05:59:13.886Z,205
2018-04-23T06:00:14.663Z,210
2018-04-23T06:01:13.361Z,215
2018-04-23T06:02:13.893Z,220
2018-04-23T06:03:13.791Z,220
2018-04-23T06:04:13.605Z,215
2018-04-23T06:05:13.397Z,200
2018-04-23T06:06:13.863Z,200
2018-04-23T06:07:13.616Z,205
2018-04-23T06:08:13.335Z,205
2018-04-23T06:09:13.336Z,205
2018-04-23T06:10:13.587Z,200
2018-04-23T06:11:13.590Z,200
2018-04-23T06:12:13.085Z,195
2018-04-23T06:13:13.574Z,195
2018-04-23T06:14:13.575Z,195
2018-04-23T06:15:13.852Z,195
2018-04-23T06:16:13.573Z,195
2018-04-23T06:17:14.046Z,195
2018-04-23T06:18:13.815Z,205
2018-04-23T06:19:13.299Z,210
2018-04-23T06:20:13.559Z,220
2018-04-23T06:21:13.304Z,235
2018-04-23T06:22:13.818Z,250
2018-04-23T06:23:13.544Z,250
2018-04-23T06:24:13.804Z,250
2018-04-23T06:25:13.596Z,240
2018-04-23T06:26:13.831Z,235
2018-04-23T06:27:13.276Z,225
2018-04-23T06:28:13.984Z,220
2018-04-23T06:29:13.524Z,215
2018-04-23T06:30:13.791Z,215
2018-04-23T06:31:13.341Z,210
2018-04-23T06:32:13.777Z,215
2018-04-23T06:33:12.741Z,220
2018-04-23T06:34:13.552Z,215
2018-04-23T06:35:13.509Z,205
2018-04-23T06:36:13.268Z,195
2018-04-23T06:37:13.766Z,195
2018-04-23T06:38:13.763Z,195
2018-04-23T06:39:13.510Z,200
2018-04-23T06:40:13.773Z,190
2018-04-23T06:41:13.516Z,185
2018-04-23T06:42:13.495Z,185
2018-04-23T06:43:13.505Z,185
2018-04-23T06:44:13.808Z,200
2018-04-23T06:45:13.498Z,210
2018-04-23T06:46:13.349Z,215
2018-04-23T06:47:13.484Z,210
2018-04-23T06:48:13.479Z,215
2018-04-23T06:49:13.218Z,210
2018-04-23T06:50:13.477Z,230
2018-04-23T06:51:13.736Z,215
2018-04-23T06:52:13.176Z,235
2018-04-23T06:53:13.722Z,250
2018-04-23T06:54:13.462Z,245
2018-04-23T06:55:13.787Z,245
2018-04-23T06:56:13.731Z,255
2018-04-23T06:57:13.952Z,265
2018-04-23T06:58:13.482Z,285
2018-04-23T06:59:13.300Z,280
2018-04-23T07:00:12.941Z,300
2018-04-23T07:01:13.462Z,305
2018-04-23T07:02:13.709Z,300
2018-04-23T07:03:13.447Z,280
2018-04-23T07:04:13.718Z,300
2018-04-23T07:05:13.736Z,295
2018-04-23T07:06:13.470Z,305
2018-04-23T07:07:13.189Z,290
2018-04-23T07:08:13.468Z,285
2018-04-23T07:09:13.702Z,320
2018-04-23T07:10:13.493Z,300
2018-04-23T07:11:13.712Z,345
2018-04-23T07:12:13.698Z,320
2018-04-23T07:13:13.479Z,285
2018-04-23T07:14:13.492Z,270
2018-04-23T07:15:13.742Z,275
2018-04-23T07:16:13.438Z,265
2018-04-23T07:17:13.438Z,275
2018-04-23T07:18:13.700Z,255
2018-04-23T07:19:13.299Z,240
2018-04-23T07:20:13.407Z,240
2018-04-23T07:21:13.707Z,235
2018-04-23T07:22:13.443Z,225
2018-04-23T07:23:13.691Z,225
2018-04-23T07:24:12.977Z,220
2018-04-23T07:25:13.583Z,215
2018-04-23T07:26:13.174Z,210
2018-04-23T07:27:13.856Z,210
2018-04-23T07:28:13.244Z,215
2018-04-23T07:29:13.437Z,225
2018-04-23T07:30:13.693Z,240
2018-04-23T07:31:13.178Z,245
2018-04-23T07:32:13.654Z,245
2018-04-23T07:33:13.909Z,230
2018-04-23T07:34:13.688Z,215
2018-04-23T07:35:13.170Z,220
2018-04-23T07:36:13.503Z,230
2018-04-23T07:37:13.739Z,235
2018-04-23T07:38:13.686Z,240
2018-04-23T07:39:13.723Z,245
2018-04-23T07:40:12.916Z,250
2018-04-23T07:41:13.430Z,250
2018-04-23T07:42:13.696Z,255
2018-04-23T07:43:13.441Z,260
2018-04-23T07:44:13.700Z,255
2018-04-23T07:45:13.700Z,245
2018-04-23T07:46:13.438Z,245
2018-04-23T07:47:13.439Z,250
2018-04-23T07:48:13.400Z,245
2018-04-23T07:49:13.439Z,240
2018-04-23T07:50:13.709Z,240
2018-04-23T07:51:13.427Z,235
2018-04-23T07:52:13.688Z,230
2018-04-23T07:53:13.446Z,230
2018-04-23T07:54:13.317Z,235
2018-04-23T07:55:13.179Z,245
2018-04-23T07:56:13.425Z,245
2018-04-23T07:57:13.429Z,245
2018-04-23T07:58:13.424Z,250
2018-04-23T07:59:13.680Z,260
2018-04-23T08:00:13.434Z,265
2018-04-23T08:01:13.431Z,260
2018-04-23T08:02:13.176Z,265
2018-04-23T08:03:13.173Z,250
2018-04-23T08:04:13.183Z,245
2018-04-23T08:05:12.908Z,235
2018-04-23T08:06:13.434Z,230
2018-04-23T08:07:13.423Z,230
2018-04-23T08:08:13.430Z,230
2018-04-23T08:09:13.187Z,235
2018-04-23T08:10:13.173Z,240
2018-04-23T08:11:13.706Z,255
2018-04-23T08:12:13.718Z,260
2018-04-23T08:13:13.739Z,265
2018-04-23T08:14:13.439Z,280
2018-04-23T08:15:13.413Z,295
2018-04-23T08:16:13.432Z,325
2018-04-23T08:17:13.169Z,350
2018-04-23T08:18:13.464Z,350
2018-04-23T08:19:13.694Z,345
2018-04-23T08:20:13.431Z,335
2018-04-23T08:21:13.169Z,340
2018-04-23T08:22:13.688Z,355
2018-04-23T08:23:13.687Z,345
2018-04-23T08:24:13.174Z,320
2018-04-23T08:25:13.431Z,305
2018-04-23T08:26:13.445Z,295
2018-04-23T08:27:13.438Z,300
2018-04-23T08:28:13.690Z,305
2018-04-23T08:29:13.451Z,320
2018-04-23T08:30:13.435Z,340
2018-04-23T08:31:13.437Z,355
2018-04-23T08:32:12.920Z,365
2018-04-23T08:33:13.349Z,375
2018-04-23T08:34:13.698Z,400
2018-04-23T08:35:13.921Z,440
2018-04-23T08:36:13.719Z,465
2018-04-23T08:37:13.464Z,470
2018-04-23T08:38:13.185Z,440
2018-04-23T08:39:13.186Z,420
2018-04-23T08:40:13.466Z,380
2018-04-23T08:41:13.454Z,375
2018-04-23T08:42:13.452Z,345
2018-04-23T08:43:13.196Z,320
2018-04-23T08:44:13.191Z,320
2018-04-23T08:45:13.745Z,355
2018-04-23T08:46:13.735Z,390
2018-04-23T08:47:13.456Z,370
2018-04-23T08:48:13.590Z,330
2018-04-23T08:49:13.454Z,345
2018-04-23T08:50:13.460Z,335
2018-04-23T08:51:13.488Z,370
2018-04-23T08:52:13.469Z,350
2018-04-23T08:53:13.491Z,350
2018-04-23T08:54:13.491Z,345
2018-04-23T08:55:13.757Z,345
2018-04-23T08:56:13.227Z,365
2018-04-23T08:57:13.473Z,370
2018-04-23T08:58:12.961Z,360
2018-04-23T08:59:13.472Z,350
2018-04-23T09:00:13.490Z,345
2018-04-23T09:01:13.412Z,360
2018-04-23T09:02:13.524Z,345
2018-04-23T09:03:13.482Z,360
2018-04-23T09:04:13.487Z,390
2018-04-23T09:05:13.777Z,425
2018-04-23T09:06:13.506Z,440
2018-04-23T09:07:13.688Z,440
2018-04-23T09:08:13.488Z,420
2018-04-23T09:09:13.496Z,410
2018-04-23T09:10:13.471Z,410
2018-04-23T09:11:13.248Z,415
2018-04-23T09:12:13.768Z,410
2018-04-23T09:13:13.788Z,380
2018-04-23T09:14:13.745Z,405
2018-04-23T09:15:13.495Z,405
2018-04-23T09:16:13.494Z,385
2018-04-23T09:17:13.498Z,365
2018-04-23T09:18:13.502Z,345
2018-04-23T09:19:13.496Z,345
2018-04-23T09:20:13.498Z,330
2018-04-23T09:21:13.513Z,340
2018-04-23T09:22:12.985Z,340
2018-04-23T09:23:13.247Z,335
2018-04-23T09:24:13.782Z,340
2018-04-23T09:25:13.721Z,330
2018-04-23T09:26:13.717Z,340
2018-04-23T09:27:13.519Z,325
2018-04-23T09:28:13.725Z,345
2018-04-23T09:29:13.523Z,370
2018-04-23T09:30:13.778Z,385
2018-04-23T09:31:13.521Z,410
2018-04-23T09:32:13.535Z,410
2018-04-23T09:33:13.780Z,405
2018-04-23T09:34:13.264Z,375
2018-04-23T09:35:13.536Z,360
2018-04-23T09:36:13.783Z,370
2018-04-23T09:37:13.801Z,390
2018-04-23T09:38:13.271Z,400
2018-04-23T09:39:13.782Z,445
2018-04-23T09:40:13.272Z,490
2018-04-23T09:41:13.797Z,525
2018-04-23T09:42:13.789Z,555
2018-04-23T09:43:13.797Z,560
2018-04-23T09:44:13.298Z,560
2018-04-23T09:45:13.797Z,555
2018-04-23T09:46:13.535Z,560
2018-04-23T09:47:13.549Z,540
2018-04-23T09:48:13.803Z,510
2018-04-23T09:49:13.812Z,510
2018-04-23T09:50:14.151Z,515
2018-04-23T09:51:13.583Z,495
2018-04-23T09:52:13.803Z,460
2018-04-23T09:53:13.292Z,440
2018-04-23T09:54:13.809Z,425
2018-04-23T09:55:13.036Z,410
2018-04-23T09:56:13.296Z,390
2018-04-23T09:57:13.558Z,350
2018-04-23T09:58:13.581Z,315
2018-04-23T09:59:13.822Z,265
2018-04-23T10:00:13.570Z,225
2018-04-23T10:01:13.044Z,200
2018-04-23T10:02:13.340Z,165
2018-04-23T10:03:13.310Z,140
2018-04-23T10:04:13.311Z,105
2018-04-23T10:05:13.569Z,85
2018-04-23T10:06:13.118Z,80
2018-04-23T10:07:13.830Z,100
2018-04-23T10:08:13.324Z,130
2018-04-23T10:09:13.317Z,140
2018-04-23T10:10:13.319Z,155
2018-04-23T10:11:13.582Z,150
2018-04-23T10:12:14.072Z,140
2018-04-23T10:13:13.833Z,115
2018-04-23T10:14:13.839Z,100
2018-04-23T10:15:13.320Z,80
2018-04-23T10:16:13.592Z,55
2018-04-23T10:17:13.799Z,40
2018-04-23T10:18:13.839Z,45
2018-04-23T10:19:13.061Z,55
2018-04-23T10:20:13.578Z,70
2018-04-23T10:21:13.938Z,85
2018-04-23T10:22:13.329Z,90
2018-04-23T10:23:14.050Z,75
2018-04-23T10:24:13.833Z,60
2018-04-23T10:25:13.319Z,60
2018-04-23T10:26:13.318Z,65
2018-04-23T10:27:13.830Z,90
2018-04-23T10:28:13.565Z,100
2018-04-23T10:29:13.309Z,105
2018-04-23T10:30:13.573Z,105
2018-04-23T10:31:13.989Z,100
2018-04-23T10:32:13.300Z,105
2018-04-23T10:33:13.549Z,140
2018-04-23T10:34:13.549Z,170
2018-04-23T10:35:13.289Z,185
2018-04-23T10:36:13.547Z,200
2018-04-23T10:37:13.536Z,215
2018-04-23T10:38:13.788Z,225
2018-04-23T10:39:13.527Z,240
2018-04-23T10:40:13.522Z,255
2018-04-23T10:41:13.524Z,275
2018-04-23T10:42:13.533Z,280
2018-04-23T10:43:13.987Z,265
2018-04-23T10:44:13.252Z,245
2018-04-23T10:45:13.248Z,230
2018-04-23T10:46:13.751Z,215
2018-04-23T10:47:13.757Z,215
2018-04-23T10:48:13.486Z,215
2018-04-23T10:49:13.745Z,215
2018-04-23T10:50:13.484Z,215
2018-04-23T10:51:12.958Z,215
2018-04-23T10:52:13.213Z,220
2018-04-23T10:53:13.465Z,225
2018-04-23T10:54:13.459Z,230
2018-04-23T10:55:13.460Z,235
2018-04-23T10:56:12.936Z,240
2018-04-23T10:57:13.464Z,245
2018-04-23T10:58:13.468Z,245
2018-04-23T10:59:13.439Z,250
2018-04-23T11:00:13.442Z,260
2018-04-23T11:01:13.194Z,265
2018-04-23T11:02:13.429Z,260
2018-04-23T11:03:13.441Z,245
2018-04-23T11:04:12.905Z,240
2018-04-23T11:05:13.417Z,240
2018-04-23T11:06:13.410Z,260
2018-04-23T11:07:13.413Z,285
2018-04-23T11:08:12.902Z,285
2018-04-23T11:09:13.147Z,260
2018-04-23T11:10:12.945Z,245
2018-04-23T11:11:13.393Z,240
2018-04-23T11:12:13.648Z,240
2018-04-23T11:13:13.387Z,235
2018-04-23T11:14:13.377Z,220
2018-04-23T11:15:13.116Z,210
2018-04-23T11:16:13.367Z,195
2018-04-23T11:17:13.113Z,185
2018-04-23T11:18:13.108Z,180
2018-04-23T11:19:13.098Z,170
2018-04-23T11:20:13.361Z,165
2018-04-23T11:21:12.973Z,160
2018-04-23T11:22:13.098Z,165
2018-04-23T11:23:12.828Z,175
2018-04-23T11:24:12.837Z,190
2018-04-23T11:25:13.348Z,205
2018-04-23T11:26:13.347Z,220
2018-04-23T11:27:13.069Z,245
2018-04-23T11:28:13.589Z,280
2018-04-23T11:29:13.327Z,320
2018-04-23T11:30:13.580Z,345
2018-04-23T11:31:12.808Z,350
2018-04-23T11:32:13.071Z,335
2018-04-23T11:33:13.312Z,320
2018-04-23T11:34:13.324Z,315
2018-04-23T11:35:13.307Z,305
2018-04-23T11:36:13.277Z,300
2018-04-23T11:37:13.049Z,305
2018-04-23T11:38:13.038Z,330
2018-04-23T11:39:13.295Z,335
2018-04-23T11:40:13.031Z,340
2018-04-23T11:41:13.298Z,345
2018-04-23T11:42:13.280Z,360
2018-04-23T11:43:13.293Z,385
2018-04-23T11:44:13.278Z,420
2018-04-23T11:45:13.708Z,450
2018-04-23T11:46:13.009Z,465
2018-04-23T11:47:13.598Z,460
2018-04-23T11:48:13.527Z,455
2018-04-23T11:49:12.998Z,435
2018-04-23T11:50:13.263Z,435
2018-04-23T11:51:13.259Z,440
2018-04-23T11:52:13.261Z,455
2018-04-23T11:53:12.804Z,465
2018-04-23T11:54:13.254Z,480
2018-04-23T11:55:13.252Z,475
2018-04-23T11:56:13.505Z,460
2018-04-23T11:57:12.980Z,445
2018-04-23T11:58:13.238Z,435
2018-04-23T11:59:13.061Z,435
2018-04-23T12:00:13.529Z,435
2018-04-23T12:01:13.563Z,440
2018-04-23T12:02:13.228Z,435
2018-04-23T12:03:13.228Z,435
2018-04-23T12:04:12.968Z,435
2018-04-23T12:05:13.489Z,430
2018-04-23T12:06:12.962Z,430
2018-04-23T12:07:13.499Z,425
2018-04-23T12:08:13.220Z,420
2018-04-23T12:09:13.696Z,410
2018-04-23T12:10:12.705Z,395
2018-04-23T12:11:13.497Z,385
2018-04-23T12:12:12.955Z,375
2018-04-23T12:13:13.213Z,375
2018-04-23T12:14:12.691Z,375
2018-04-23T12:15:13.209Z,370
2018-04-23T12:16:13.667Z,370
2018-04-23T12:17:13.205Z,370
2018-04-23T12:18:13.465Z,370
2018-04-23T12:19:13.214Z,365
2018-04-23T12:20:12.942Z,365
2018-04-23T12:21:13.205Z,365
2018-04-23T12:22:13.528Z,380
2018-04-23T12:23:13.195Z,395
2018-04-23T12:24:12.673Z,410
2018-04-23T12:25:13.446Z,425
2018-04-23T12:26:13.467Z,430
2018-04-23T12:27:12.928Z,430
2018-04-23T12:28:12.927Z,425
2018-04-23T12:29:13.203Z,420
2018-04-23T12:30:12.663Z,415
2018-04-23T12:31:12.925Z,420
2018-04-23T12:32:12.926Z,425
2018-04-23T12:33:13.183Z,435
2018-04-23T12:34:13.174Z,445
2018-04-23T12:35:13.168Z,455
2018-04-23T12:36:13.172Z,460
2018-04-23T12:37:13.649Z,460
2018-04-23T12:38:13.176Z,460
2018-04-23T12:39:12.652Z,460
2018-04-23T12:40:12.650Z,470
2018-04-23T12:41:13.172Z,470
2018-04-23T12:42:13.142Z,465
2018-04-23T12:43:13.166Z,460
2018-04-23T12:44:12.642Z,460
2018-04-23T12:45:13.161Z,455
2018-04-23T12:46:12.811Z,450
2018-04-23T12:47:13.158Z,440
2018-04-23T12:48:12.915Z,440
2018-04-23T12:49:13.154Z,440
2018-04-23T12:50:12.637Z,435
2018-04-23T12:51:12.911Z,430
2018-04-23T12:52:12.898Z,420
2018-04-23T12:53:12.645Z,420
2018-04-23T12:54:13.413Z,400
2018-04-23T12:55:13.189Z,400
2018-04-23T12:56:14.037Z,375
2018-04-23T12:57:13.406Z,345
2018-04-23T12:58:13.167Z,325
2018-04-23T12:59:12.629Z,315
2018-04-23T13:00:12.887Z,315
2018-04-23T13:01:12.887Z,325
2018-04-23T13:02:13.411Z,345
2018-04-23T13:03:13.144Z,370
2018-04-23T13:04:12.884Z,385
2018-04-23T13:05:13.410Z,400
2018-04-23T13:06:12.624Z,405
2018-04-23T13:07:13.142Z,395
2018-04-23T13:08:13.150Z,420
2018-04-23T13:09:13.141Z,420
2018-04-23T13:10:13.375Z,415
2018-04-23T13:11:13.140Z,410
2018-04-23T13:12:12.890Z,400
2018-04-23T13:13:13.410Z,395
2018-04-23T13:14:13.133Z,395
2018-04-23T13:15:12.619Z,390
2018-04-23T13:16:13.388Z,395
2018-04-23T13:17:12.878Z,390
2018-04-23T13:18:12.872Z,390
2018-04-23T13:19:13.132Z,390
2018-04-23T13:20:13.401Z,385
2018-04-23T13:21:13.130Z,375
2018-04-23T13:22:13.132Z,365
2018-04-23T13:23:12.879Z,345
2018-04-23T13:24:13.140Z,335
2018-04-23T13:25:13.133Z,325
2018-04-23T13:26:12.864Z,320
2018-04-23T13:27:13.124Z,300
2018-04-23T13:28:13.126Z,295
2018-04-23T13:29:13.119Z,285
2018-04-23T13:30:13.584Z,275
2018-04-23T13:31:13.139Z,270
2018-04-23T13:32:12.864Z,265
2018-04-23T13:33:12.865Z,260
2018-04-23T13:34:12.856Z,245
2018-04-23T13:35:12.856Z,235
2018-04-23T13:36:13.117Z,235
2018-04-23T13:37:13.377Z,230
2018-04-23T13:38:13.132Z,235
2018-04-23T13:39:12.875Z,235
2018-04-23T13:40:13.134Z,225
2018-04-23T13:41:12.864Z,230
2018-04-23T13:42:13.369Z,250
2018-04-23T13:43:13.368Z,245
2018-04-23T13:44:12.846Z,230
2018-04-23T13:45:12.853Z,205
2018-04-23T13:46:13.360Z,185
2018-04-23T13:47:13.102Z,195
2018-04-23T13:48:13.366Z,195
2018-04-23T13:49:13.069Z,215
2018-04-23T13:50:13.165Z,220
2018-04-23T13:51:13.101Z,225
2018-04-23T13:52:12.859Z,235
2018-04-23T13:53:13.357Z,240
2018-04-23T13:54:12.835Z,240
2018-04-23T13:55:12.854Z,240
2018-04-23T13:56:13.192Z,235
2018-04-23T13:57:12.834Z,275
2018-04-23T13:58:12.835Z,255
2018-04-23T13:59:12.572Z,240
2018-04-23T14:00:13.356Z,225
2018-04-23T14:01:12.831Z,195
2018-04-23T14:02:13.348Z,200
2018-04-23T14:03:13.088Z,195
2018-04-23T14:04:13.084Z,195
2018-04-23T14:05:12.829Z,195
2018-04-23T14:06:13.345Z,195